sensor_id;sensor_type;location;lat;lon;timestamp;P1;durP1;ratioP1;P2;durP2;ratioP2
48853;SDS011;34673;52.808;17.856;2022-09-09T00:00:24;10.85;;;6.88;;
48853;SDS011;34673;52.808;17.856;2022-09-09T00:03:06;10.63;;;6.55;;
48853;SDS011;34673;52.808;17.856;2022-09-09T00:05:57;13.27;;;7.28;;
48853;SDS011;34673;52.808;17.856;2022-09-09T00:11:17;12.52;;;7.30;;
48853;SDS011;34673;52.808;17.856;2022-09-09T00:13:56;11.88;;;7.55;;
48853;SDS011;34673;52.808;17.856;2022-09-09T00:16:30;11.77;;;6.75;;
48853;SDS011;34673;52.808;17.856;2022-09-09T00:19:07;11.35;;;6.90;;
48853;SDS011;34673;52.808;17.856;2022-09-09T00:21:49;13.93;;;7.93;;
48853;SDS011;34673;52.808;17.856;2022-09-09T00:32:59;10.73;;;7.43;;
48853;SDS011;34673;52.808;17.856;2022-09-09T00:35:32;10.60;;;6.70;;
48853;SDS011;34673;52.808;17.856;2022-09-09T00:38:08;10.82;;;6.97;;
48853;SDS011;34673;52.808;17.856;2022-09-09T00:40:42;13.60;;;7.82;;
48853;SDS011;34673;52.808;17.856;2022-09-09T00:43:26;12.13;;;7.07;;
48853;SDS011;34673;52.808;17.856;2022-09-09T00:54:40;12.73;;;7.97;;
48853;SDS011;34673;52.808;17.856;2022-09-09T00:59:48;11.40;;;6.95;;
48853;SDS011;34673;52.808;17.856;2022-09-09T01:05:13;12.13;;;7.25;;
48853;SDS011;34673;52.808;17.856;2022-09-09T01:07:49;13.60;;;7.72;;
48853;SDS011;34673;52.808;17.856;2022-09-09T01:10:29;12.73;;;7.95;;
48853;SDS011;34673;52.808;17.856;2022-09-09T01:13:04;11.93;;;7.65;;
48853;SDS011;34673;52.808;17.856;2022-09-09T01:15:41;11.65;;;7.53;;
48853;SDS011;34673;52.808;17.856;2022-09-09T01:18:12;13.43;;;7.93;;
48853;SDS011;34673;52.808;17.856;2022-09-09T01:20:50;14.70;;;8.50;;
48853;SDS011;34673;52.808;17.856;2022-09-09T01:28:48;12.95;;;8.45;;
48853;SDS011;34673;52.808;17.856;2022-09-09T01:31:27;12.75;;;7.85;;
48853;SDS011;34673;52.808;17.856;2022-09-09T01:33:59;15.43;;;8.35;;
48853;SDS011;34673;52.808;17.856;2022-09-09T01:36:38;11.93;;;7.68;;
48853;SDS011;34673;52.808;17.856;2022-09-09T01:39:12;13.60;;;7.85;;
48853;SDS011;34673;52.808;17.856;2022-09-09T01:41:41;14.88;;;8.40;;
48853;SDS011;34673;52.808;17.856;2022-09-09T01:44:12;12.77;;;8.50;;
48853;SDS011;34673;52.808;17.856;2022-09-09T01:46:43;13.88;;;8.15;;
48853;SDS011;34673;52.808;17.856;2022-09-09T01:49:18;15.55;;;8.85;;
48853;SDS011;34673;52.808;17.856;2022-09-09T01:51:46;17.67;;;8.90;;
48853;SDS011;34673;52.808;17.856;2022-09-09T01:54:17;11.27;;;7.70;;
48853;SDS011;34673;52.808;17.856;2022-09-09T01:59:42;14.37;;;8.03;;
48853;SDS011;34673;52.808;17.856;2022-09-09T02:02:19;14.63;;;8.30;;
48853;SDS011;34673;52.808;17.856;2022-09-09T02:05:10;14.00;;;8.07;;
48853;SDS011;34673;52.808;17.856;2022-09-09T02:07:49;13.30;;;8.20;;
48853;SDS011;34673;52.808;17.856;2022-09-09T02:10:31;14.02;;;8.75;;
48853;SDS011;34673;52.808;17.856;2022-09-09T02:13:23;12.88;;;9.00;;
48853;SDS011;34673;52.808;17.856;2022-09-09T02:16:03;14.23;;;8.98;;
48853;SDS011;34673;52.808;17.856;2022-09-09T02:18:35;12.32;;;8.70;;
48853;SDS011;34673;52.808;17.856;2022-09-09T02:21:04;12.57;;;8.27;;
48853;SDS011;34673;52.808;17.856;2022-09-09T02:23:33;16.15;;;9.40;;
48853;SDS011;34673;52.808;17.856;2022-09-09T02:26:06;14.43;;;8.43;;
48853;SDS011;34673;52.808;17.856;2022-09-09T02:28:37;13.15;;;8.55;;
48853;SDS011;34673;52.808;17.856;2022-09-09T02:31:06;15.02;;;9.30;;
48853;SDS011;34673;52.808;17.856;2022-09-09T02:33:41;13.32;;;8.05;;
48853;SDS011;34673;52.808;17.856;2022-09-09T02:36:12;14.77;;;9.18;;
48853;SDS011;34673;52.808;17.856;2022-09-09T02:38:45;14.52;;;8.88;;
48853;SDS011;34673;52.808;17.856;2022-09-09T02:41:32;16.45;;;9.57;;
48853;SDS011;34673;52.808;17.856;2022-09-09T02:44:01;14.93;;;8.52;;
48853;SDS011;34673;52.808;17.856;2022-09-09T02:52:19;13.20;;;8.88;;
48853;SDS011;34673;52.808;17.856;2022-09-09T02:54:54;15.00;;;8.88;;
48853;SDS011;34673;52.808;17.856;2022-09-09T02:57:31;12.57;;;8.27;;
48853;SDS011;34673;52.808;17.856;2022-09-09T03:00:00;14.90;;;8.93;;
48853;SDS011;34673;52.808;17.856;2022-09-09T03:02:30;14.70;;;8.98;;
48853;SDS011;34673;52.808;17.856;2022-09-09T03:05:02;14.27;;;8.98;;
48853;SDS011;34673;52.808;17.856;2022-09-09T03:07:30;14.38;;;8.70;;
48853;SDS011;34673;52.808;17.856;2022-09-09T03:09:57;12.68;;;8.88;;
48853;SDS011;34673;52.808;17.856;2022-09-09T03:12:26;17.65;;;9.85;;
48853;SDS011;34673;52.808;17.856;2022-09-09T03:14:53;15.88;;;10.00;;
48853;SDS011;34673;52.808;17.856;2022-09-09T03:17:22;15.70;;;10.02;;
48853;SDS011;34673;52.808;17.856;2022-09-09T03:19:53;16.05;;;9.20;;
48853;SDS011;34673;52.808;17.856;2022-09-09T03:22:21;14.77;;;9.55;;
48853;SDS011;34673;52.808;17.856;2022-09-09T03:24:48;16.65;;;10.45;;
48853;SDS011;34673;52.808;17.856;2022-09-09T03:27:16;17.63;;;10.43;;
48853;SDS011;34673;52.808;17.856;2022-09-09T03:29:44;17.95;;;10.38;;
48853;SDS011;34673;52.808;17.856;2022-09-09T03:32:17;14.23;;;9.60;;
48853;SDS011;34673;52.808;17.856;2022-09-09T03:34:45;16.05;;;10.95;;
48853;SDS011;34673;52.808;17.856;2022-09-09T03:37:14;14.75;;;10.18;;
48853;SDS011;34673;52.808;17.856;2022-09-09T03:39:41;17.85;;;11.02;;
48853;SDS011;34673;52.808;17.856;2022-09-09T03:42:14;16.20;;;10.98;;
48853;SDS011;34673;52.808;17.856;2022-09-09T03:44:48;15.30;;;9.95;;
48853;SDS011;34673;52.808;17.856;2022-09-09T03:47:20;15.52;;;10.30;;
48853;SDS011;34673;52.808;17.856;2022-09-09T03:49:51;15.18;;;11.07;;
48853;SDS011;34673;52.808;17.856;2022-09-09T03:52:18;16.02;;;10.88;;
48853;SDS011;34673;52.808;17.856;2022-09-09T03:54:50;16.20;;;10.20;;
48853;SDS011;34673;52.808;17.856;2022-09-09T03:57:18;16.70;;;10.98;;
48853;SDS011;34673;52.808;17.856;2022-09-09T03:59:46;15.05;;;11.27;;
48853;SDS011;34673;52.808;17.856;2022-09-09T04:02:13;17.17;;;10.85;;
48853;SDS011;34673;52.808;17.856;2022-09-09T04:04:40;15.70;;;10.38;;
48853;SDS011;34673;52.808;17.856;2022-09-09T04:07:08;16.10;;;11.07;;
48853;SDS011;34673;52.808;17.856;2022-09-09T04:09:35;14.15;;;10.50;;
48853;SDS011;34673;52.808;17.856;2022-09-09T04:12:02;23.30;;;12.95;;
48853;SDS011;34673;52.808;17.856;2022-09-09T04:14:29;17.63;;;12.05;;
48853;SDS011;34673;52.808;17.856;2022-09-09T04:16:57;17.70;;;11.32;;
48853;SDS011;34673;52.808;17.856;2022-09-09T04:19:26;16.25;;;11.43;;
48853;SDS011;34673;52.808;17.856;2022-09-09T04:21:53;19.90;;;12.57;;
48853;SDS011;34673;52.808;17.856;2022-09-09T04:24:21;20.50;;;11.75;;
48853;SDS011;34673;52.808;17.856;2022-09-09T04:26:49;15.27;;;11.15;;
48853;SDS011;34673;52.808;17.856;2022-09-09T04:29:16;18.63;;;12.70;;
48853;SDS011;34673;52.808;17.856;2022-09-09T04:31:43;20.40;;;12.60;;
48853;SDS011;34673;52.808;17.856;2022-09-09T04:34:12;21.10;;;13.27;;
48853;SDS011;34673;52.808;17.856;2022-09-09T04:36:39;25.58;;;13.57;;
48853;SDS011;34673;52.808;17.856;2022-09-09T04:39:07;14.60;;;10.50;;
48853;SDS011;34673;52.808;17.856;2022-09-09T04:41:35;20.20;;;13.13;;
48853;SDS011;34673;52.808;17.856;2022-09-09T04:44:02;17.05;;;12.02;;
48853;SDS011;34673;52.808;17.856;2022-09-09T04:46:31;17.98;;;11.57;;
48853;SDS011;34673;52.808;17.856;2022-09-09T04:49:00;17.58;;;12.02;;
48853;SDS011;34673;52.808;17.856;2022-09-09T04:51:30;20.37;;;13.27;;
48853;SDS011;34673;52.808;17.856;2022-09-09T04:53:57;20.55;;;12.98;;
48853;SDS011;34673;52.808;17.856;2022-09-09T04:56:25;18.55;;;12.68;;
48853;SDS011;34673;52.808;17.856;2022-09-09T04:58:57;20.98;;;12.90;;
48853;SDS011;34673;52.808;17.856;2022-09-09T05:01:38;19.42;;;13.32;;
48853;SDS011;34673;52.808;17.856;2022-09-09T05:04:06;22.80;;;13.02;;
48853;SDS011;34673;52.808;17.856;2022-09-09T05:06:33;21.90;;;14.35;;
48853;SDS011;34673;52.808;17.856;2022-09-09T05:09:00;19.25;;;12.20;;
48853;SDS011;34673;52.808;17.856;2022-09-09T05:11:30;21.38;;;12.88;;
48853;SDS011;34673;52.808;17.856;2022-09-09T05:14:04;19.80;;;13.07;;
48853;SDS011;34673;52.808;17.856;2022-09-09T05:16:32;22.42;;;13.48;;
48853;SDS011;34673;52.808;17.856;2022-09-09T05:18:59;18.33;;;12.40;;
48853;SDS011;34673;52.808;17.856;2022-09-09T05:21:35;20.38;;;12.98;;
48853;SDS011;34673;52.808;17.856;2022-09-09T05:24:02;21.98;;;13.75;;
48853;SDS011;34673;52.808;17.856;2022-09-09T05:26:29;26.67;;;13.55;;
48853;SDS011;34673;52.808;17.856;2022-09-09T05:28:58;22.88;;;13.80;;
48853;SDS011;34673;52.808;17.856;2022-09-09T05:31:29;20.60;;;14.07;;
48853;SDS011;34673;52.808;17.856;2022-09-09T05:34:00;22.48;;;14.23;;
48853;SDS011;34673;52.808;17.856;2022-09-09T05:36:28;22.25;;;14.32;;
48853;SDS011;34673;52.808;17.856;2022-09-09T05:38:55;22.55;;;14.15;;
48853;SDS011;34673;52.808;17.856;2022-09-09T05:41:25;26.05;;;14.82;;
48853;SDS011;34673;52.808;17.856;2022-09-09T05:43:54;22.00;;;14.48;;
48853;SDS011;34673;52.808;17.856;2022-09-09T05:46:23;24.65;;;15.65;;
48853;SDS011;34673;52.808;17.856;2022-09-09T05:48:53;27.90;;;14.80;;
48853;SDS011;34673;52.808;17.856;2022-09-09T05:51:28;26.15;;;14.35;;
48853;SDS011;34673;52.808;17.856;2022-09-09T05:54:00;24.38;;;15.38;;
48853;SDS011;34673;52.808;17.856;2022-09-09T05:56:31;26.25;;;15.77;;
48853;SDS011;34673;52.808;17.856;2022-09-09T05:58:59;30.95;;;17.08;;
48853;SDS011;34673;52.808;17.856;2022-09-09T06:01:28;28.50;;;14.80;;
48853;SDS011;34673;52.808;17.856;2022-09-09T06:03:58;25.42;;;14.73;;
48853;SDS011;34673;52.808;17.856;2022-09-09T06:06:26;29.80;;;16.45;;
48853;SDS011;34673;52.808;17.856;2022-09-09T06:09:08;29.35;;;16.85;;
48853;SDS011;34673;52.808;17.856;2022-09-09T06:11:40;32.72;;;17.17;;
48853;SDS011;34673;52.808;17.856;2022-09-09T06:14:08;36.42;;;17.80;;
48853;SDS011;34673;52.808;17.856;2022-09-09T06:16:37;33.80;;;19.00;;
48853;SDS011;34673;52.808;17.856;2022-09-09T06:19:17;34.78;;;19.05;;
48853;SDS011;34673;52.808;17.856;2022-09-09T06:21:44;32.97;;;17.45;;
48853;SDS011;34673;52.808;17.856;2022-09-09T06:24:12;32.50;;;18.65;;
48853;SDS011;34673;52.808;17.856;2022-09-09T06:26:41;32.70;;;18.90;;
48853;SDS011;34673;52.808;17.856;2022-09-09T06:29:11;36.80;;;20.60;;
48853;SDS011;34673;52.808;17.856;2022-09-09T06:31:40;38.20;;;21.65;;
48853;SDS011;34673;52.808;17.856;2022-09-09T06:34:14;37.05;;;21.10;;
48853;SDS011;34673;52.808;17.856;2022-09-09T06:36:45;39.35;;;20.88;;
48853;SDS011;34673;52.808;17.856;2022-09-09T06:39:13;39.88;;;19.90;;
48853;SDS011;34673;52.808;17.856;2022-09-09T06:41:42;37.67;;;19.73;;
48853;SDS011;34673;52.808;17.856;2022-09-09T06:44:38;33.35;;;19.65;;
48853;SDS011;34673;52.808;17.856;2022-09-09T06:47:09;38.83;;;19.45;;
48853;SDS011;34673;52.808;17.856;2022-09-09T06:49:39;32.87;;;19.03;;
48853;SDS011;34673;52.808;17.856;2022-09-09T06:52:09;36.22;;;20.15;;
48853;SDS011;34673;52.808;17.856;2022-09-09T06:54:37;38.00;;;20.35;;
48853;SDS011;34673;52.808;17.856;2022-09-09T06:57:04;39.42;;;21.40;;
48853;SDS011;34673;52.808;17.856;2022-09-09T06:59:55;38.92;;;20.52;;
48853;SDS011;34673;52.808;17.856;2022-09-09T07:02:22;38.67;;;21.05;;
48853;SDS011;34673;52.808;17.856;2022-09-09T07:04:50;38.40;;;20.15;;
48853;SDS011;34673;52.808;17.856;2022-09-09T07:07:18;43.38;;;22.25;;
48853;SDS011;34673;52.808;17.856;2022-09-09T07:09:45;38.90;;;21.30;;
48853;SDS011;34673;52.808;17.856;2022-09-09T07:12:13;41.08;;;21.52;;
48853;SDS011;34673;52.808;17.856;2022-09-09T07:14:47;42.22;;;22.48;;
48853;SDS011;34673;52.808;17.856;2022-09-09T07:17:14;42.53;;;23.00;;
48853;SDS011;34673;52.808;17.856;2022-09-09T07:19:42;42.90;;;23.58;;
48853;SDS011;34673;52.808;17.856;2022-09-09T07:22:09;38.03;;;21.27;;
48853;SDS011;34673;52.808;17.856;2022-09-09T07:24:38;36.85;;;22.38;;
48853;SDS011;34673;52.808;17.856;2022-09-09T07:27:05;41.45;;;23.23;;
48853;SDS011;34673;52.808;17.856;2022-09-09T07:29:34;36.50;;;21.45;;
48853;SDS011;34673;52.808;17.856;2022-09-09T07:32:02;36.08;;;22.38;;
48853;SDS011;34673;52.808;17.856;2022-09-09T07:34:34;33.17;;;19.83;;
48853;SDS011;34673;52.808;17.856;2022-09-09T07:37:02;36.22;;;21.45;;
48853;SDS011;34673;52.808;17.856;2022-09-09T07:39:30;38.50;;;22.85;;
48853;SDS011;34673;52.808;17.856;2022-09-09T07:41:58;33.72;;;20.48;;
48853;SDS011;34673;52.808;17.856;2022-09-09T07:44:26;31.13;;;19.38;;
48853;SDS011;34673;52.808;17.856;2022-09-09T07:47:03;32.85;;;20.08;;
48853;SDS011;34673;52.808;17.856;2022-09-09T07:49:37;30.55;;;20.08;;
48853;SDS011;34673;52.808;17.856;2022-09-09T07:52:07;36.67;;;20.73;;
48853;SDS011;34673;52.808;17.856;2022-09-09T07:54:36;28.60;;;18.27;;
48853;SDS011;34673;52.808;17.856;2022-09-09T07:57:05;29.02;;;19.73;;
48853;SDS011;34673;52.808;17.856;2022-09-09T07:59:34;31.23;;;20.58;;
48853;SDS011;34673;52.808;17.856;2022-09-09T08:02:02;32.45;;;19.90;;
48853;SDS011;34673;52.808;17.856;2022-09-09T08:04:32;27.63;;;18.10;;
48853;SDS011;34673;52.808;17.856;2022-09-09T08:07:00;32.63;;;19.85;;
48853;SDS011;34673;52.808;17.856;2022-09-09T08:09:31;29.60;;;18.40;;
48853;SDS011;34673;52.808;17.856;2022-09-09T08:12:12;34.60;;;20.42;;
48853;SDS011;34673;52.808;17.856;2022-09-09T08:14:39;28.70;;;18.83;;
48853;SDS011;34673;52.808;17.856;2022-09-09T08:17:07;30.38;;;18.58;;
48853;SDS011;34673;52.808;17.856;2022-09-09T08:19:34;26.60;;;18.65;;
48853;SDS011;34673;52.808;17.856;2022-09-09T08:22:07;28.50;;;18.73;;
48853;SDS011;34673;52.808;17.856;2022-09-09T08:24:38;27.33;;;18.25;;
48853;SDS011;34673;52.808;17.856;2022-09-09T08:27:06;25.65;;;17.05;;
48853;SDS011;34673;52.808;17.856;2022-09-09T08:29:33;24.90;;;15.27;;
48853;SDS011;34673;52.808;17.856;2022-09-09T08:32:01;23.98;;;16.73;;
48853;SDS011;34673;52.808;17.856;2022-09-09T08:34:29;22.05;;;14.98;;
48853;SDS011;34673;52.808;17.856;2022-09-09T08:37:02;24.23;;;16.33;;
48853;SDS011;34673;52.808;17.856;2022-09-09T08:39:36;27.13;;;16.48;;
48853;SDS011;34673;52.808;17.856;2022-09-09T08:42:13;23.05;;;15.27;;
48853;SDS011;34673;52.808;17.856;2022-09-09T08:50:27;18.20;;;13.13;;
48853;SDS011;34673;52.808;17.856;2022-09-09T08:53:04;18.45;;;13.82;;
48853;SDS011;34673;52.808;17.856;2022-09-09T08:58:33;16.42;;;12.88;;
48853;SDS011;34673;52.808;17.856;2022-09-09T09:06:48;19.10;;;13.88;;
48853;SDS011;34673;52.808;17.856;2022-09-09T09:12:56;20.15;;;14.52;;
48853;SDS011;34673;52.808;17.856;2022-09-09T09:15:25;19.55;;;13.38;;
48853;SDS011;34673;52.808;17.856;2022-09-09T09:17:58;20.13;;;12.93;;
48853;SDS011;34673;52.808;17.856;2022-09-09T09:23:45;16.75;;;12.45;;
48853;SDS011;34673;52.808;17.856;2022-09-09T09:26:23;20.60;;;13.02;;
48853;SDS011;34673;52.808;17.856;2022-09-09T09:28:54;17.08;;;13.18;;
48853;SDS011;34673;52.808;17.856;2022-09-09T09:31:23;16.77;;;12.80;;
48853;SDS011;34673;52.808;17.856;2022-09-09T09:33:54;19.13;;;13.82;;
48853;SDS011;34673;52.808;17.856;2022-09-09T09:36:34;17.17;;;12.35;;
48853;SDS011;34673;52.808;17.856;2022-09-09T09:39:10;15.95;;;12.95;;
48853;SDS011;34673;52.808;17.856;2022-09-09T09:42:16;20.50;;;13.30;;
48853;SDS011;34673;52.808;17.856;2022-09-09T09:44:49;16.30;;;10.85;;
48853;SDS011;34673;52.808;17.856;2022-09-09T09:47:20;17.75;;;13.20;;
48853;SDS011;34673;52.808;17.856;2022-09-09T09:50:03;17.30;;;12.27;;
48853;SDS011;34673;52.808;17.856;2022-09-09T09:52:36;19.17;;;11.93;;
48853;SDS011;34673;52.808;17.856;2022-09-09T09:55:11;18.90;;;11.93;;
48853;SDS011;34673;52.808;17.856;2022-09-09T09:57:42;17.40;;;12.07;;
48853;SDS011;34673;52.808;17.856;2022-09-09T10:00:13;18.58;;;12.05;;
48853;SDS011;34673;52.808;17.856;2022-09-09T10:02:50;16.52;;;10.75;;
48853;SDS011;34673;52.808;17.856;2022-09-09T10:05:24;17.15;;;11.13;;
48853;SDS011;34673;52.808;17.856;2022-09-09T10:08:05;16.95;;;10.55;;
48853;SDS011;34673;52.808;17.856;2022-09-09T10:19:06;14.68;;;11.48;;
48853;SDS011;34673;52.808;17.856;2022-09-09T10:30:14;14.88;;;9.30;;
48853;SDS011;34673;52.808;17.856;2022-09-09T10:38:14;13.88;;;10.13;;
48853;SDS011;34673;52.808;17.856;2022-09-09T10:52:27;10.93;;;8.65;;
48853;SDS011;34673;52.808;17.856;2022-09-09T10:55:06;12.45;;;8.63;;
48853;SDS011;34673;52.808;17.856;2022-09-09T10:57:41;12.77;;;8.20;;
48853;SDS011;34673;52.808;17.856;2022-09-09T11:00:21;11.88;;;7.45;;
48853;SDS011;34673;52.808;17.856;2022-09-09T11:03:15;9.15;;;6.75;;
48853;SDS011;34673;52.808;17.856;2022-09-09T11:08:51;10.18;;;7.55;;
48853;SDS011;34673;52.808;17.856;2022-09-09T11:11:33;10.05;;;7.00;;
48853;SDS011;34673;52.808;17.856;2022-09-09T11:14:13;10.35;;;6.78;;
48853;SDS011;34673;52.808;17.856;2022-09-09T11:16:50;13.18;;;9.18;;
48853;SDS011;34673;52.808;17.856;2022-09-09T11:19:24;12.40;;;9.60;;
48853;SDS011;34673;52.808;17.856;2022-09-09T11:22:02;10.80;;;7.50;;
48853;SDS011;34673;52.808;17.856;2022-09-09T11:27:31;11.20;;;7.90;;
48853;SDS011;34673;52.808;17.856;2022-09-09T11:30:16;12.95;;;7.80;;
48853;SDS011;34673;52.808;17.856;2022-09-09T11:35:42;12.27;;;7.35;;
48853;SDS011;34673;52.808;17.856;2022-09-09T11:40:53;8.63;;;6.68;;
48853;SDS011;34673;52.808;17.856;2022-09-09T11:43:47;11.68;;;7.18;;
48853;SDS011;34673;52.808;17.856;2022-09-09T11:46:20;10.18;;;6.75;;
48853;SDS011;34673;52.808;17.856;2022-09-09T11:49:01;11.02;;;6.80;;
48853;SDS011;34673;52.808;17.856;2022-09-09T11:51:31;11.30;;;6.78;;
48853;SDS011;34673;52.808;17.856;2022-09-09T11:54:00;10.38;;;7.80;;
48853;SDS011;34673;52.808;17.856;2022-09-09T11:56:49;12.05;;;7.50;;
48853;SDS011;34673;52.808;17.856;2022-09-09T11:59:20;12.73;;;7.47;;
48853;SDS011;34673;52.808;17.856;2022-09-09T12:02:13;11.70;;;7.05;;
48853;SDS011;34673;52.808;17.856;2022-09-09T12:05:02;12.85;;;7.95;;
48853;SDS011;34673;52.808;17.856;2022-09-09T12:07:39;11.80;;;7.90;;
48853;SDS011;34673;52.808;17.856;2022-09-09T12:12:53;14.52;;;8.48;;
48853;SDS011;34673;52.808;17.856;2022-09-09T12:15:27;14.15;;;9.70;;
48853;SDS011;34673;52.808;17.856;2022-09-09T12:17:56;17.80;;;10.73;;
48853;SDS011;34673;52.808;17.856;2022-09-09T12:25:52;14.45;;;10.48;;
48853;SDS011;34673;52.808;17.856;2022-09-09T12:31:28;18.70;;;11.25;;
48853;SDS011;34673;52.808;17.856;2022-09-09T12:37:00;19.48;;;12.32;;
48853;SDS011;34673;52.808;17.856;2022-09-09T12:39:34;19.45;;;11.52;;
48853;SDS011;34673;52.808;17.856;2022-09-09T12:42:14;22.50;;;12.63;;
48853;SDS011;34673;52.808;17.856;2022-09-09T12:45:00;21.13;;;12.80;;
48853;SDS011;34673;52.808;17.856;2022-09-09T12:50:15;22.05;;;13.07;;
48853;SDS011;34673;52.808;17.856;2022-09-09T12:52:56;20.13;;;13.05;;
48853;SDS011;34673;52.808;17.856;2022-09-09T12:55:30;17.33;;;11.40;;
48853;SDS011;34673;52.808;17.856;2022-09-09T12:58:03;19.15;;;10.77;;
48853;SDS011;34673;52.808;17.856;2022-09-09T13:00:33;16.77;;;11.68;;
48853;SDS011;34673;52.808;17.856;2022-09-09T13:03:15;19.63;;;12.40;;
48853;SDS011;34673;52.808;17.856;2022-09-09T13:05:43;19.80;;;12.27;;
48853;SDS011;34673;52.808;17.856;2022-09-09T13:08:13;20.77;;;11.90;;
48853;SDS011;34673;52.808;17.856;2022-09-09T13:13:35;18.80;;;12.30;;
48853;SDS011;34673;52.808;17.856;2022-09-09T13:16:06;18.95;;;12.38;;
48853;SDS011;34673;52.808;17.856;2022-09-09T13:18:44;23.77;;;15.47;;
48853;SDS011;34673;52.808;17.856;2022-09-09T13:21:12;21.30;;;13.60;;
48853;SDS011;34673;52.808;17.856;2022-09-09T13:23:40;19.05;;;12.23;;
48853;SDS011;34673;52.808;17.856;2022-09-09T13:26:24;21.23;;;13.68;;
48853;SDS011;34673;52.808;17.856;2022-09-09T13:28:53;22.30;;;12.98;;
48853;SDS011;34673;52.808;17.856;2022-09-09T13:31:32;23.40;;;13.98;;
48853;SDS011;34673;52.808;17.856;2022-09-09T13:37:02;21.55;;;13.75;;
48853;SDS011;34673;52.808;17.856;2022-09-09T13:42:03;20.67;;;13.07;;
48853;SDS011;34673;52.808;17.856;2022-09-09T13:44:37;19.55;;;13.25;;
48853;SDS011;34673;52.808;17.856;2022-09-09T13:47:06;22.52;;;13.95;;
48853;SDS011;34673;52.808;17.856;2022-09-09T13:49:49;21.10;;;14.00;;
48853;SDS011;34673;52.808;17.856;2022-09-09T13:52:17;23.05;;;15.88;;
48853;SDS011;34673;52.808;17.856;2022-09-09T13:54:49;26.67;;;18.00;;
48853;SDS011;34673;52.808;17.856;2022-09-09T13:59:46;28.98;;;18.75;;
48853;SDS011;34673;52.808;17.856;2022-09-09T14:02:31;29.95;;;17.20;;
48853;SDS011;34673;52.808;17.856;2022-09-09T14:04:58;27.60;;;16.63;;
48853;SDS011;34673;52.808;17.856;2022-09-09T14:07:25;23.25;;;14.77;;
48853;SDS011;34673;52.808;17.856;2022-09-09T14:09:53;27.08;;;17.33;;
48853;SDS011;34673;52.808;17.856;2022-09-09T14:12:20;32.38;;;18.95;;
48853;SDS011;34673;52.808;17.856;2022-09-09T14:14:47;32.08;;;18.90;;
48853;SDS011;34673;52.808;17.856;2022-09-09T14:17:14;29.23;;;18.13;;
48853;SDS011;34673;52.808;17.856;2022-09-09T14:19:41;33.03;;;18.45;;
48853;SDS011;34673;52.808;17.856;2022-09-09T14:22:09;30.80;;;17.20;;
48853;SDS011;34673;52.808;17.856;2022-09-09T14:24:36;36.83;;;19.45;;
48853;SDS011;34673;52.808;17.856;2022-09-09T14:27:03;36.50;;;21.00;;
48853;SDS011;34673;52.808;17.856;2022-09-09T14:29:30;34.65;;;20.50;;
48853;SDS011;34673;52.808;17.856;2022-09-09T14:31:57;35.05;;;19.15;;
48853;SDS011;34673;52.808;17.856;2022-09-09T14:34:27;38.83;;;20.38;;
48853;SDS011;34673;52.808;17.856;2022-09-09T14:36:54;38.95;;;20.55;;
48853;SDS011;34673;52.808;17.856;2022-09-09T14:39:22;41.33;;;21.13;;
48853;SDS011;34673;52.808;17.856;2022-09-09T14:41:49;44.13;;;21.65;;
48853;SDS011;34673;52.808;17.856;2022-09-09T14:44:16;36.92;;;21.27;;
48853;SDS011;34673;52.808;17.856;2022-09-09T14:46:43;39.67;;;22.20;;
48853;SDS011;34673;52.808;17.856;2022-09-09T14:49:11;40.53;;;21.50;;
48853;SDS011;34673;52.808;17.856;2022-09-09T14:51:39;35.72;;;21.25;;
48853;SDS011;34673;52.808;17.856;2022-09-09T14:54:06;43.00;;;22.80;;
48853;SDS011;34673;52.808;17.856;2022-09-09T14:56:33;44.00;;;22.58;;
48853;SDS011;34673;52.808;17.856;2022-09-09T14:59:01;41.28;;;23.40;;
48853;SDS011;34673;52.808;17.856;2022-09-09T15:01:29;41.95;;;22.85;;
48853;SDS011;34673;52.808;17.856;2022-09-09T15:03:58;42.78;;;23.85;;
48853;SDS011;34673;52.808;17.856;2022-09-09T15:06:28;42.58;;;22.58;;
48853;SDS011;34673;52.808;17.856;2022-09-09T15:08:58;38.33;;;22.33;;
48853;SDS011;34673;52.808;17.856;2022-09-09T15:11:27;44.03;;;23.10;;
48853;SDS011;34673;52.808;17.856;2022-09-09T15:13:57;45.03;;;23.02;;
48853;SDS011;34673;52.808;17.856;2022-09-09T15:16:26;44.70;;;24.02;;
48853;SDS011;34673;52.808;17.856;2022-09-09T15:18:56;40.57;;;24.90;;
48853;SDS011;34673;52.808;17.856;2022-09-09T15:23:53;46.95;;;25.50;;
48853;SDS011;34673;52.808;17.856;2022-09-09T15:26:20;47.85;;;26.80;;
48853;SDS011;34673;52.808;17.856;2022-09-09T15:28:48;47.80;;;26.60;;
48853;SDS011;34673;52.808;17.856;2022-09-09T15:31:18;45.28;;;25.95;;
48853;SDS011;34673;52.808;17.856;2022-09-09T15:33:51;51.60;;;27.58;;
48853;SDS011;34673;52.808;17.856;2022-09-09T15:36:20;47.60;;;25.55;;
48853;SDS011;34673;52.808;17.856;2022-09-09T15:38:51;45.80;;;25.75;;
48853;SDS011;34673;52.808;17.856;2022-09-09T15:41:20;42.17;;;25.20;;
48853;SDS011;34673;52.808;17.856;2022-09-09T15:43:49;41.50;;;24.00;;
48853;SDS011;34673;52.808;17.856;2022-09-09T15:49:03;39.72;;;24.20;;
48853;SDS011;34673;52.808;17.856;2022-09-09T15:51:38;41.78;;;24.35;;
48853;SDS011;34673;52.808;17.856;2022-09-09T15:54:16;38.88;;;23.15;;
48853;SDS011;34673;52.808;17.856;2022-09-09T15:56:45;42.00;;;24.45;;
48853;SDS011;34673;52.808;17.856;2022-09-09T16:01:42;36.97;;;24.30;;
48853;SDS011;34673;52.808;17.856;2022-09-09T16:04:10;40.70;;;22.75;;
48853;SDS011;34673;52.808;17.856;2022-09-09T16:06:38;35.03;;;22.77;;
48853;SDS011;34673;52.808;17.856;2022-09-09T16:09:06;35.25;;;22.60;;
48853;SDS011;34673;52.808;17.856;2022-09-09T16:11:35;35.35;;;22.02;;
48853;SDS011;34673;52.808;17.856;2022-09-09T16:14:04;40.15;;;23.00;;
48853;SDS011;34673;52.808;17.856;2022-09-09T16:16:33;30.77;;;20.33;;
48853;SDS011;34673;52.808;17.856;2022-09-09T16:19:03;33.47;;;21.50;;
48853;SDS011;34673;52.808;17.856;2022-09-09T16:21:35;33.33;;;22.38;;
48853;SDS011;34673;52.808;17.856;2022-09-09T16:26:33;32.08;;;20.48;;
48853;SDS011;34673;52.808;17.856;2022-09-09T16:29:03;25.60;;;18.23;;
48853;SDS011;34673;52.808;17.856;2022-09-09T16:31:30;23.38;;;17.88;;
48853;SDS011;34673;52.808;17.856;2022-09-09T16:36:30;27.75;;;18.50;;
48853;SDS011;34673;52.808;17.856;2022-09-09T16:38:59;28.58;;;20.70;;
48853;SDS011;34673;52.808;17.856;2022-09-09T16:41:29;32.53;;;22.63;;
48853;SDS011;34673;52.808;17.856;2022-09-09T16:44:00;38.33;;;24.48;;
48853;SDS011;34673;52.808;17.856;2022-09-09T16:46:33;39.53;;;25.92;;
48853;SDS011;34673;52.808;17.856;2022-09-09T16:49:03;41.42;;;27.13;;
48853;SDS011;34673;52.808;17.856;2022-09-09T16:51:33;36.22;;;25.02;;
48853;SDS011;34673;52.808;17.856;2022-09-09T16:54:03;35.80;;;23.75;;
48853;SDS011;34673;52.808;17.856;2022-09-09T16:56:36;33.70;;;23.50;;
48853;SDS011;34673;52.808;17.856;2022-09-09T16:59:14;36.05;;;22.83;;
48853;SDS011;34673;52.808;17.856;2022-09-09T17:01:44;29.20;;;19.58;;
48853;SDS011;34673;52.808;17.856;2022-09-09T17:04:13;24.50;;;17.40;;